createdAt,value
2018-06-01T00:02:00.250Z,21.80
2018-06-01T00:04:27.441Z,21.70
2018-06-01T00:06:53.827Z,21.70
2018-06-01T00:09:20.166Z,21.60
2018-06-01T00:11:46.577Z,21.60
2018-06-01T00:14:13.574Z,21.90
2018-06-01T00:16:39.928Z,22.10
2018-06-01T00:19:06.326Z,22.20
2018-06-01T00:21:32.671Z,21.90
2018-06-01T00:23:59.986Z,21.90
2018-06-01T00:26:26.387Z,21.70
2018-06-01T00:28:53.469Z,22.20
2018-06-01T00:31:19.841Z,22.20
2018-06-01T00:33:46.170Z,21.70
2018-06-01T00:36:12.548Z,21.60
2018-06-01T00:38:38.970Z,21.70
2018-06-01T00:41:05.374Z,21.60
2018-06-01T00:43:31.718Z,21.60
2018-06-01T00:45:58.947Z,21.80
2018-06-01T00:48:25.169Z,21.70
2018-06-01T00:50:51.499Z,21.60
2018-06-01T00:53:17.858Z,21.60
2018-06-01T00:55:45.074Z,21.20
2018-06-01T00:58:11.464Z,21.20
2018-06-01T01:00:38.797Z,21.10
2018-06-01T01:03:05.207Z,21.00
2018-06-01T01:05:31.593Z,21.00
2018-06-01T01:07:58.022Z,21.10
2018-06-01T01:10:24.378Z,21.20
2018-06-01T01:12:50.705Z,21.10
2018-06-01T01:15:17.105Z,21.30
2018-06-01T01:17:43.473Z,21.30
2018-06-01T01:20:09.870Z,21.20
2018-06-01T01:22:36.193Z,21.20
2018-06-01T01:25:02.622Z,21.10
2018-06-01T01:27:28.980Z,21.10
2018-06-01T01:29:55.369Z,21.00
2018-06-01T01:32:21.794Z,21.10
2018-06-01T01:34:48.874Z,21.10
2018-06-01T01:37:24.472Z,21.10
2018-06-01T01:39:51.557Z,20.90
2018-06-01T01:42:18.045Z,20.90
2018-06-01T01:44:44.379Z,21.20
2018-06-01T01:47:11.479Z,20.90
2018-06-01T01:49:37.872Z,20.90
2018-06-01T01:52:05.000Z,21.10
2018-06-01T01:54:31.372Z,21.00
2018-06-01T01:56:57.773Z,21.00
2018-06-01T01:59:24.175Z,20.90
2018-06-01T02:01:50.528Z,20.90
2018-06-01T02:04:17.057Z,21.10
2018-06-01T02:06:43.400Z,21.10
2018-06-01T02:09:10.536Z,21.00
2018-06-01T02:11:36.872Z,21.00
2018-06-01T02:14:03.229Z,20.70
2018-06-01T02:16:30.638Z,20.60
2018-06-01T02:18:57.034Z,20.70
2018-06-01T02:21:23.358Z,20.20
2018-06-01T02:23:50.463Z,19.90
2018-06-01T02:26:16.796Z,19.80
2018-06-01T02:28:43.907Z,20.40
2018-06-01T02:31:10.309Z,20.40
2018-06-01T02:33:37.391Z,20.70
2018-06-01T02:36:03.766Z,20.70
2018-06-01T02:38:30.135Z,20.90
2018-06-01T02:40:56.592Z,21.00
2018-06-01T02:43:23.045Z,21.00
2018-06-01T02:45:49.415Z,20.90
2018-06-01T02:48:15.806Z,20.80
2018-06-01T02:50:42.133Z,21.00
2018-06-01T02:53:08.510Z,21.00
2018-06-01T02:55:34.886Z,20.80
2018-06-01T02:58:01.266Z,20.80
2018-06-01T03:00:28.335Z,20.50
2018-06-01T03:02:54.725Z,20.40
2018-06-01T03:05:21.815Z,20.60
2018-06-01T03:07:48.251Z,20.60
2018-06-01T03:10:14.606Z,20.50
2018-06-01T03:12:40.956Z,20.50
2018-06-01T03:15:07.346Z,20.30
2018-06-01T03:17:33.697Z,20.50
2018-06-01T03:20:00.117Z,20.50
2018-06-01T03:22:26.599Z,20.60
2018-06-01T03:24:52.990Z,20.60
2018-06-01T03:27:19.328Z,20.50
2018-06-01T03:29:48.537Z,20.00
2018-06-01T03:32:14.914Z,19.80
2018-06-01T03:34:41.970Z,19.80
2018-06-01T03:37:08.359Z,19.80
2018-06-01T03:39:34.747Z,20.00
2018-06-01T03:42:01.089Z,19.90
2018-06-01T03:44:27.453Z,19.60
2018-06-01T03:46:53.851Z,19.50
2018-06-01T03:49:20.218Z,19.40
2018-06-01T03:51:46.556Z,19.20
2018-06-01T03:54:12.934Z,19.30
2018-06-01T03:56:39.365Z,19.30
2018-06-01T03:59:05.777Z,19.30
2018-06-01T04:01:32.166Z,19.50
2018-06-01T04:04:00.012Z,19.40
2018-06-01T04:06:26.376Z,19.40
2018-06-01T04:08:53.518Z,19.70
2018-06-01T04:11:19.849Z,19.70
2018-06-01T04:13:46.985Z,20.00
2018-06-01T04:16:15.231Z,20.00
2018-06-01T04:18:41.709Z,19.90
2018-06-01T04:21:08.227Z,20.10
2018-06-01T04:23:34.581Z,20.00
2018-06-01T04:26:01.694Z,20.00
2018-06-01T04:28:28.064Z,20.00
2018-06-01T04:30:54.490Z,19.80
2018-06-01T04:33:21.610Z,19.70
2018-06-01T04:35:47.997Z,19.70
2018-06-01T04:38:14.381Z,19.70
2018-06-01T04:40:40.786Z,19.50
2018-06-01T04:43:07.157Z,19.40
2018-06-01T04:45:34.886Z,19.20
2018-06-01T04:48:01.348Z,19.10
2018-06-01T04:50:28.483Z,19.30
2018-06-01T04:52:54.818Z,19.30
2018-06-01T04:55:21.227Z,19.30
2018-06-01T04:57:47.582Z,19.60
2018-06-01T05:00:14.215Z,19.70
2018-06-01T05:02:40.630Z,19.90
2018-06-01T05:05:07.017Z,19.90
2018-06-01T05:07:33.361Z,19.90
2018-06-01T05:09:59.742Z,20.00
2018-06-01T05:12:27.547Z,20.10
2018-06-01T05:14:53.874Z,20.10
2018-06-01T05:17:20.239Z,20.10
2018-06-01T05:19:46.624Z,19.70
2018-06-01T05:22:13.721Z,19.40
2018-06-01T05:24:40.086Z,19.30
2018-06-01T05:27:06.494Z,19.30
2018-06-01T05:29:34.932Z,19.40
2018-06-01T05:32:01.276Z,19.30
2018-06-01T05:34:28.500Z,19.40
2018-06-01T05:36:55.572Z,19.20
2018-06-01T05:39:21.971Z,19.10
2018-06-01T05:41:49.100Z,19.40
2018-06-01T05:44:16.069Z,19.30
2018-06-01T05:46:43.193Z,19.60
2018-06-01T05:49:10.292Z,19.70
2018-06-01T05:51:36.699Z,19.60
2018-06-01T05:54:03.811Z,19.70
2018-06-01T05:56:30.198Z,19.70
2018-06-01T05:58:56.498Z,19.80
2018-06-01T06:01:23.597Z,20.00
2018-06-01T06:03:49.954Z,20.00
2018-06-01T06:06:16.939Z,19.90
2018-06-01T06:08:44.033Z,19.90
2018-06-01T06:11:10.348Z,19.90
2018-06-01T06:13:36.706Z,19.70
2018-06-01T06:16:03.038Z,19.80
2018-06-01T06:18:29.393Z,20.00
2018-06-01T06:20:55.725Z,20.20
2018-06-01T06:23:22.087Z,20.30
2018-06-01T06:25:48.441Z,20.20
2018-06-01T06:28:14.833Z,20.20
2018-06-01T06:30:41.163Z,20.20
2018-06-01T06:33:07.463Z,20.30
2018-06-01T06:35:34.591Z,20.40
2018-06-01T06:38:01.133Z,20.40
2018-06-01T06:40:27.475Z,20.50
2018-06-01T06:42:54.565Z,20.40
2018-06-01T06:45:20.930Z,20.30
2018-06-01T06:47:47.242Z,20.50
2018-06-01T06:50:13.606Z,20.60
2018-06-01T06:52:39.934Z,20.70
2018-06-01T06:55:06.324Z,20.80
2018-06-01T06:57:32.692Z,20.80
2018-06-01T06:59:59.004Z,20.80
2018-06-01T07:02:25.307Z,20.80
2018-06-01T07:04:51.708Z,21.20
2018-06-01T07:07:18.757Z,21.20
2018-06-01T07:09:45.802Z,21.40
2018-06-01T07:12:12.908Z,21.50
2018-06-01T07:14:39.352Z,21.50
2018-06-01T07:17:05.730Z,21.50
2018-06-01T07:19:32.773Z,21.40
2018-06-01T07:21:59.824Z,21.30
2018-06-01T07:24:26.192Z,21.20
2018-06-01T07:26:52.503Z,21.40
2018-06-01T07:29:19.725Z,21.50
2018-06-01T07:31:46.121Z,21.40
2018-06-01T07:34:12.465Z,21.60
2018-06-01T07:36:38.779Z,21.70
2018-06-01T07:39:05.142Z,21.60
2018-06-01T07:41:32.259Z,21.70
2018-06-01T07:43:58.642Z,21.60
2018-06-01T07:46:24.963Z,21.70
2018-06-01T07:48:52.053Z,21.90
2018-06-01T07:51:18.367Z,21.80
2018-06-01T07:53:44.710Z,21.80
2018-06-01T07:56:11.036Z,21.90
2018-06-01T07:58:37.402Z,21.90
2018-06-01T08:01:03.713Z,22.10
2018-06-01T08:03:30.095Z,22.20
2018-06-01T08:05:56.469Z,22.20
2018-06-01T08:08:22.830Z,22.20
2018-06-01T08:10:49.127Z,22.30
2018-06-01T08:13:15.509Z,22.40
2018-06-01T08:15:41.828Z,22.50
2018-06-01T08:18:09.154Z,22.40
2018-06-01T08:20:35.996Z,22.40
2018-06-01T08:23:02.301Z,22.40
2018-06-01T08:25:28.686Z,22.40
2018-06-01T08:27:55.768Z,22.50
2018-06-01T08:30:22.130Z,22.50
2018-06-01T08:32:48.479Z,22.60
2018-06-01T08:35:14.802Z,22.60
2018-06-01T08:37:46.380Z,22.50
2018-06-01T08:40:13.447Z,22.80
2018-06-01T08:42:39.859Z,22.80
2018-06-01T08:45:06.229Z,23.10
2018-06-01T08:47:32.578Z,23.20
2018-06-01T08:49:58.933Z,23.30
2018-06-01T08:52:26.083Z,23.60
2018-06-01T08:54:52.410Z,23.50
2018-06-01T08:57:18.716Z,23.60
2018-06-01T08:59:45.053Z,23.90
2018-06-01T09:02:11.415Z,24.00
2018-06-01T09:04:38.518Z,24.30
2018-06-01T09:07:04.842Z,24.20
2018-06-01T09:09:31.216Z,24.40
2018-06-01T09:11:57.526Z,24.40
2018-06-01T09:14:23.917Z,24.40
2018-06-01T09:16:50.239Z,24.40
2018-06-01T09:19:16.574Z,24.50
2018-06-01T09:21:42.938Z,24.60
2018-06-01T09:24:09.340Z,24.80
2018-06-01T09:26:35.703Z,24.80
2018-06-01T09:29:02.020Z,24.80
2018-06-01T09:31:28.405Z,25.00
2018-06-01T09:33:55.465Z,25.40
2018-06-01T09:36:21.783Z,25.30
2018-06-01T09:38:48.891Z,25.50
2018-06-01T09:41:15.211Z,25.40
2018-06-01T09:43:41.586Z,25.50
2018-06-01T09:46:08.666Z,25.80
2018-06-01T09:48:35.038Z,25.80
2018-06-01T09:51:01.350Z,25.80
2018-06-01T09:53:27.730Z,26.00
2018-06-01T09:55:54.811Z,26.00
2018-06-01T09:58:21.151Z,26.00
2018-06-01T10:00:53.844Z,26.20
2018-06-01T10:03:20.158Z,26.20
2018-06-01T10:05:46.519Z,26.00
2018-06-01T10:08:12.822Z,25.90
2018-06-01T10:10:39.196Z,26.10
2018-06-01T10:13:08.139Z,26.20
2018-06-01T10:15:34.593Z,26.20
2018-06-01T10:18:00.883Z,26.40
2018-06-01T10:20:27.263Z,26.70
2018-06-01T10:22:53.689Z,26.70
2018-06-01T10:25:20.052Z,26.90
2018-06-01T10:27:47.111Z,26.90
2018-06-01T10:30:13.420Z,26.80
2018-06-01T10:32:40.534Z,26.90
2018-06-01T10:35:06.840Z,26.90
2018-06-01T10:37:33.160Z,27.00
2018-06-01T10:39:59.522Z,27.30
2018-06-01T10:42:25.882Z,27.10
2018-06-01T10:44:52.241Z,27.30
2018-06-01T10:47:18.599Z,27.50
2018-06-01T10:49:44.958Z,27.70
2018-06-01T10:52:11.320Z,27.80
2018-06-01T10:54:38.360Z,27.90
2018-06-01T10:57:04.711Z,27.80
2018-06-01T10:59:31.058Z,27.60
2018-06-01T11:01:57.433Z,27.70
2018-06-01T11:04:23.757Z,28.00
2018-06-01T11:06:50.106Z,27.90
2018-06-01T11:09:17.206Z,27.50
2018-06-01T11:11:43.530Z,27.50
2018-06-01T11:14:09.879Z,27.50
2018-06-01T11:16:36.244Z,27.70
2018-06-01T11:19:02.558Z,27.90
2018-06-01T11:21:28.937Z,27.90
2018-06-01T11:23:55.254Z,28.10
2018-06-01T11:26:22.313Z,28.10
2018-06-01T11:28:48.697Z,28.10
2018-06-01T11:31:15.054Z,28.30
2018-06-01T11:33:42.203Z,28.50
2018-06-01T11:36:09.315Z,28.50
2018-06-01T11:38:36.381Z,28.70
2018-06-01T11:41:02.756Z,28.60
2018-06-01T11:43:29.101Z,28.70
2018-06-01T11:45:55.420Z,28.60
2018-06-01T11:48:21.778Z,28.60
2018-06-01T11:50:48.092Z,28.20
2018-06-01T11:53:14.455Z,28.00
2018-06-01T11:55:43.268Z,27.80
2018-06-01T11:58:10.312Z,27.40
2018-06-01T12:00:37.382Z,27.10
2018-06-01T12:03:03.747Z,27.10
2018-06-01T12:05:30.059Z,26.90
2018-06-01T12:07:56.417Z,26.70
2018-06-01T12:10:22.740Z,26.70
2018-06-01T12:12:49.109Z,26.70
2018-06-01T12:15:16.157Z,26.80
2018-06-01T12:17:43.619Z,26.70
2018-06-01T12:20:09.955Z,26.60
2018-06-01T12:22:36.328Z,26.60
2018-06-01T12:25:02.657Z,26.40
2018-06-01T12:27:28.963Z,26.30
2018-06-01T12:29:55.329Z,26.10
2018-06-01T12:32:21.639Z,26.10
2018-06-01T12:34:47.995Z,26.00
2018-06-01T12:37:15.789Z,25.80
2018-06-01T12:39:43.000Z,25.70
2018-06-01T12:42:09.302Z,25.60
2018-06-01T12:44:35.642Z,25.70
2018-06-01T12:47:02.079Z,25.60
2018-06-01T12:49:28.386Z,25.10
2018-06-01T12:51:54.681Z,25.00
2018-06-01T12:54:21.035Z,24.80
2018-06-01T12:56:47.346Z,24.70
2018-06-01T12:59:14.450Z,24.40
2018-06-01T13:01:40.745Z,24.30
2018-06-01T13:04:07.117Z,24.40
2018-06-01T13:06:33.445Z,24.30
2018-06-01T13:08:59.805Z,24.40
2018-06-01T13:11:26.123Z,24.50
2018-06-01T13:13:52.455Z,24.40
2018-06-01T13:16:18.899Z,24.60
2018-06-01T13:18:45.213Z,24.60
2018-06-01T13:21:11.573Z,24.60
2018-06-01T13:23:38.693Z,24.60
2018-06-01T13:26:05.007Z,24.60
2018-06-01T13:28:31.330Z,24.50
2018-06-01T13:30:57.692Z,24.40
2018-06-01T13:33:24.754Z,24.40
2018-06-01T13:35:51.964Z,24.50
2018-06-01T13:38:18.267Z,24.40
2018-06-01T13:40:44.586Z,24.60
2018-06-01T13:43:10.934Z,24.60
2018-06-01T13:45:37.233Z,24.60
2018-06-01T13:48:04.332Z,24.90
2018-06-01T13:50:30.642Z,24.90
2018-06-01T13:52:57.004Z,24.90
2018-06-01T13:55:23.356Z,24.60
2018-06-01T13:57:50.423Z,24.40
2018-06-01T14:00:16.773Z,24.40
2018-06-01T14:02:43.088Z,24.40
2018-06-01T14:05:09.471Z,24.60
2018-06-01T14:07:35.821Z,24.60
2018-06-01T14:10:02.191Z,24.60
2018-06-01T14:12:28.495Z,24.60
2018-06-01T14:14:55.593Z,24.90
2018-06-01T14:17:21.902Z,24.80
2018-06-01T14:19:48.457Z,25.00
2018-06-01T14:22:14.850Z,25.00
2018-06-01T14:24:41.955Z,25.30
2018-06-01T14:27:08.302Z,25.30
2018-06-01T14:29:35.421Z,25.50
2018-06-01T14:32:01.787Z,25.40
2018-06-01T14:34:29.473Z,25.70
2018-06-01T14:36:55.835Z,25.70
2018-06-01T14:39:22.165Z,25.90
2018-06-01T14:41:49.121Z,25.80
2018-06-01T14:44:15.469Z,25.80
2018-06-01T14:46:41.847Z,25.80
2018-06-01T14:49:08.167Z,26.10
2018-06-01T14:51:34.557Z,26.00
2018-06-01T14:54:00.858Z,26.30
2018-06-01T14:56:27.233Z,26.20
2018-06-01T14:58:55.982Z,26.20
2018-06-01T15:01:22.284Z,26.30
2018-06-01T15:03:48.645Z,26.30
2018-06-01T15:06:15.317Z,26.40
2018-06-01T15:08:42.381Z,27.10
2018-06-01T15:11:08.814Z,27.10
2018-06-01T15:13:35.209Z,27.60
2018-06-01T15:16:03.031Z,28.90
2018-06-01T15:18:29.401Z,28.90
2018-06-01T15:20:55.694Z,29.80
2018-06-01T15:23:22.033Z,30.40
2018-06-01T15:25:48.430Z,31.40
2018-06-01T15:28:14.731Z,32.20
2018-06-01T15:30:41.090Z,33.30
2018-06-01T15:33:08.126Z,33.90
2018-06-01T15:35:35.179Z,34.60
2018-06-01T15:38:02.290Z,34.70
2018-06-01T15:40:28.606Z,34.70
2018-06-01T15:42:55.043Z,34.90
2018-06-01T15:45:21.375Z,34.70
2018-06-01T15:47:47.753Z,35.40
2018-06-01T15:50:14.084Z,36.10
2018-06-01T15:52:40.385Z,35.70
2018-06-01T15:55:07.493Z,35.80
2018-06-01T15:57:33.810Z,35.80
2018-06-01T16:00:00.165Z,36.30
2018-06-01T16:02:26.510Z,36.90
2018-06-01T16:04:52.880Z,36.30
2018-06-01T16:07:19.979Z,37.10
2018-06-01T16:09:46.879Z,37.10
2018-06-01T16:12:13.265Z,37.00
2018-06-01T16:14:39.590Z,36.50
2018-06-01T16:17:05.943Z,37.00
2018-06-01T16:19:32.274Z,36.70
2018-06-01T16:21:59.369Z,36.40
2018-06-01T16:24:25.672Z,36.40
2018-06-01T16:26:52.779Z,36.40
2018-06-01T16:29:19.082Z,36.50
2018-06-01T16:31:45.440Z,36.50
2018-06-01T16:34:11.789Z,35.70
2018-06-01T16:36:39.798Z,34.10
2018-06-01T16:39:06.259Z,34.00
2018-06-01T16:41:32.591Z,33.20
2018-06-01T16:43:58.909Z,32.90
2018-06-01T16:46:25.279Z,32.60
2018-06-01T16:48:52.324Z,32.00
2018-06-01T16:51:19.425Z,31.80
2018-06-01T16:53:45.739Z,31.70
2018-06-01T16:56:12.102Z,31.40
2018-06-01T16:58:38.405Z,31.20
2018-06-01T17:01:04.754Z,30.90
2018-06-01T17:03:31.124Z,30.80
2018-06-01T17:05:58.189Z,30.30
2018-06-01T17:08:25.243Z,30.20
2018-06-01T17:10:51.608Z,30.10
2018-06-01T17:13:17.979Z,30.00
2018-06-01T17:15:45.199Z,29.70
2018-06-01T17:18:11.506Z,29.70
2018-06-01T17:20:37.859Z,29.60
2018-06-01T17:23:04.170Z,29.40
2018-06-01T17:25:30.530Z,29.20
2018-06-01T17:27:56.886Z,29.10
2018-06-01T17:30:23.985Z,28.60
2018-06-01T17:32:50.334Z,28.50
2018-06-01T17:35:16.699Z,28.50
2018-06-01T17:37:43.746Z,28.40
2018-06-01T17:40:10.113Z,28.30
2018-06-01T17:42:36.465Z,28.40
2018-06-01T17:45:03.208Z,28.40
2018-06-01T17:47:29.605Z,28.60
2018-06-01T17:49:55.952Z,28.40
2018-06-01T17:52:22.267Z,28.40
2018-06-01T17:54:48.576Z,28.40
2018-06-01T17:57:15.692Z,28.20
2018-06-01T17:59:42.049Z,28.20
2018-06-01T18:02:09.141Z,28.10
2018-06-01T18:04:36.109Z,28.00
2018-06-01T18:07:02.440Z,28.20
2018-06-01T18:09:28.751Z,28.10
2018-06-01T18:11:55.098Z,28.10
2018-06-01T18:14:21.475Z,28.10
2018-06-01T18:16:47.803Z,28.00
2018-06-01T18:19:14.166Z,27.90
2018-06-01T18:21:40.464Z,28.00
2018-06-01T18:24:06.848Z,27.80
2018-06-01T18:26:35.204Z,27.50
2018-06-01T18:29:02.322Z,27.50
2018-06-01T18:31:28.802Z,27.60
2018-06-01T18:33:56.107Z,27.40
2018-06-01T18:36:22.449Z,27.40
2018-06-01T18:38:48.767Z,27.40
2018-06-01T18:41:15.138Z,27.50
2018-06-01T18:43:41.468Z,27.20
2018-06-01T18:46:07.823Z,26.80
2018-06-01T18:48:34.901Z,26.10
2018-06-01T18:51:01.261Z,26.00
2018-06-01T18:53:27.582Z,25.80
2018-06-01T18:55:53.936Z,25.60
2018-06-01T18:58:20.240Z,25.40
2018-06-01T19:00:46.621Z,25.30
2018-06-01T19:03:13.693Z,25.40
2018-06-01T19:05:40.053Z,25.30
2018-06-01T19:08:06.423Z,25.30
2018-06-01T19:10:32.753Z,25.30
2018-06-01T19:12:59.168Z,25.20
2018-06-01T19:15:25.464Z,25.20
2018-06-01T19:17:51.829Z,25.00
2018-06-01T19:20:18.182Z,24.80
2018-06-01T19:22:44.546Z,25.00
2018-06-01T19:25:10.851Z,24.70
2018-06-01T19:27:37.198Z,24.60
2018-06-01T19:30:04.251Z,24.50
2018-06-01T19:32:31.959Z,24.50
2018-06-01T19:34:58.263Z,24.40
2018-06-01T19:37:24.632Z,24.40
2018-06-01T19:39:51.011Z,24.40
2018-06-01T19:42:17.374Z,24.40
2018-06-01T19:44:43.695Z,24.40
2018-06-01T19:47:10.009Z,24.30
2018-06-01T19:49:36.395Z,24.30
2018-06-01T19:52:03.623Z,24.20
2018-06-01T19:54:29.997Z,24.10
2018-06-01T19:56:57.048Z,24.60
2018-06-01T19:59:24.169Z,24.50
2018-06-01T20:01:51.248Z,24.40
2018-06-01T20:04:17.597Z,24.40
2018-06-01T20:06:43.959Z,24.40
2018-06-01T20:09:10.318Z,24.40
2018-06-01T20:11:37.603Z,24.20
2018-06-01T20:14:03.941Z,24.20
2018-06-01T20:16:30.269Z,24.10
2018-06-01T20:18:56.615Z,24.00
2018-06-01T20:21:23.039Z,24.00
2018-06-01T20:23:49.414Z,24.00
2018-06-01T20:26:16.055Z,24.00
2018-06-01T20:28:42.567Z,23.60
2018-06-01T20:31:08.886Z,23.60
2018-06-01T20:33:35.249Z,23.70
2018-06-01T20:36:01.553Z,23.90
2018-06-01T20:38:27.912Z,24.10
2018-06-01T20:40:54.954Z,23.70
2018-06-01T20:43:21.298Z,23.70
2018-06-01T20:45:47.637Z,23.50
2018-06-01T20:48:14.026Z,24.10
2018-06-01T20:50:40.372Z,24.20
2018-06-01T20:53:06.686Z,24.30
2018-06-01T20:55:33.064Z,24.30
2018-06-01T20:57:59.391Z,24.40
2018-06-01T21:00:26.497Z,24.10
2018-06-01T21:02:52.825Z,24.10
2018-06-01T21:05:19.202Z,23.80
2018-06-01T21:07:45.518Z,23.70
2018-06-01T21:10:12.572Z,23.50
2018-06-01T21:12:39.658Z,23.80
2018-06-01T21:15:05.992Z,23.80
2018-06-01T21:17:32.353Z,24.10
2018-06-01T21:19:58.685Z,24.20
2018-06-01T21:22:25.063Z,24.30
2018-06-01T21:24:51.427Z,24.20
2018-06-01T21:27:17.772Z,24.20
2018-06-01T21:29:44.368Z,24.20
2018-06-01T21:32:10.684Z,23.70
2018-06-01T21:34:37.042Z,23.90
2018-06-01T21:37:04.206Z,24.20
2018-06-01T21:39:31.457Z,24.20
2018-06-01T21:41:57.930Z,24.10
2018-06-01T21:44:25.219Z,23.90
2018-06-01T21:46:51.545Z,23.80
2018-06-01T21:49:17.891Z,23.70
2018-06-01T21:51:44.199Z,23.70
2018-06-01T21:54:10.554Z,23.60
2018-06-01T21:56:36.895Z,23.80
2018-06-01T21:59:03.278Z,23.70
2018-06-01T22:01:29.596Z,23.80
2018-06-01T22:03:56.701Z,23.20
2018-06-01T22:06:23.048Z,23.20
2018-06-01T22:08:49.360Z,22.90
2018-06-01T22:11:15.708Z,22.90
2018-06-01T22:13:42.033Z,22.80
2018-06-01T22:16:09.114Z,22.70
2018-06-01T22:18:35.472Z,22.70
2018-06-01T22:21:01.786Z,22.60
2018-06-01T22:23:28.118Z,22.40
2018-06-01T22:25:54.449Z,22.50
2018-06-01T22:28:20.818Z,22.70
2018-06-01T22:30:47.765Z,23.10
2018-06-01T22:33:14.087Z,23.20
2018-06-01T22:35:40.422Z,22.90
2018-06-01T22:38:06.753Z,22.60
2018-06-01T22:40:33.100Z,22.60
2018-06-01T22:42:59.427Z,22.30
2018-06-01T22:45:25.778Z,22.20
2018-06-01T22:47:52.894Z,22.60
2018-06-01T22:50:19.277Z,22.50
2018-06-01T22:52:45.603Z,22.60
2018-06-01T22:55:11.973Z,22.40
2018-06-01T22:57:38.241Z,22.90
2018-06-01T23:00:05.564Z,22.90
2018-06-01T23:02:31.824Z,22.90
2018-06-01T23:04:58.916Z,22.10
2018-06-01T23:07:26.118Z,22.10
2018-06-01T23:09:52.450Z,22.30
2018-06-01T23:12:18.760Z,22.30
2018-06-01T23:14:45.113Z,22.30
2018-06-01T23:17:11.441Z,22.30
2018-06-01T23:19:38.526Z,22.80
2018-06-01T23:22:04.852Z,22.70
2018-06-01T23:24:31.209Z,22.70
2018-06-01T23:26:57.528Z,22.50
2018-06-01T23:29:23.882Z,22.00
2018-06-01T23:31:50.186Z,21.90
2018-06-01T23:34:16.505Z,21.90
2018-06-01T23:36:42.824Z,22.00
2018-06-01T23:39:09.156Z,21.80
2018-06-01T23:41:35.494Z,21.90
2018-06-01T23:44:01.814Z,21.60
2018-06-01T23:46:28.203Z,21.90
2018-06-01T23:48:55.365Z,22.00
2018-06-01T23:51:21.699Z,22.30
2018-06-01T23:53:48.760Z,22.40
2018-06-01T23:56:15.981Z,21.70
2018-06-01T23:58:42.292Z,21.60
